Time;durP1;ratioP1;P1;durP2;ratioP2;P2;SDS_P1;SDS_P2;PMS_P1;PMS_P2;Temp;Humidity;BMP_temperature;BMP_pressure;BME280_temperature;BME280_humidity;BME280_pressure;Samples;Min_cycle;Max_cycle;Signal;HPM_P1;HPM_P2
2021/11/13 05:00:45;;;;;;;522.57;75.50;;;3.10;99.90;;;;;;5917613;22;20793;-69
2021/11/13 05:03:12;;;;;;;403.60;67.20;;;3.00;99.90;;;;;;5016293;28;20433;-68
2021/11/13 05:05:39;;;;;;;199.07;60.87;;;3.00;99.90;;;;;;5015377;28;20877;-69
2021/11/13 05:08:06;;;;;;;236.33;61.93;;;3.10;99.90;;;;;;5015042;28;20457;-69
2021/11/13 05:10:33;;;;;;;289.60;62.00;;;3.10;99.90;;;;;;5033082;28;20449;-69
2021/11/13 05:13:00;;;;;;;379.87;70.70;;;3.10;99.90;;;;;;5027449;28;20457;-69
2021/11/13 05:15:27;;;;;;;410.43;67.10;;;3.10;99.90;;;;;;5020411;28;20445;-69
2021/11/13 05:17:55;;;;;;;555.03;72.37;;;3.00;99.90;;;;;;5015068;28;20817;-68
2021/11/13 05:20:21;;;;;;;780.90;81.33;;;3.10;99.90;;;;;;5014745;28;20438;-69
2021/11/13 05:22:49;;;;;;;782.23;76.23;;;3.10;99.90;;;;;;5014681;28;20460;-70
2021/11/13 05:25:18;;;;;;;389.77;65.30;;;3.10;99.90;;;;;;5015402;28;20468;-70
2021/11/13 05:27:45;;;;;;;911.93;88.93;;;3.10;99.90;;;;;;5014394;28;20461;-69
2021/11/13 05:30:14;;;;;;;638.57;72.10;;;3.00;99.90;;;;;;5014597;28;20453;-70
2021/11/13 05:32:41;;;;;;;566.63;74.63;;;3.00;99.90;;;;;;5014356;28;20803;-70
2021/11/13 05:35:10;;;;;;;599.63;75.17;;;3.00;99.90;;;;;;5014668;28;20529;-70
2021/11/13 05:37:38;;;;;;;711.30;75.63;;;2.90;99.90;;;;;;5014622;28;20458;-69
2021/11/13 05:40:07;;;;;;;276.37;64.20;;;2.90;99.90;;;;;;5015766;28;20438;-71
2021/11/13 05:42:35;;;;;;;364.27;64.23;;;2.90;99.90;;;;;;5016175;28;20508;-69
2021/11/13 05:45:02;;;;;;;249.57;59.30;;;2.90;99.90;;;;;;5016020;28;20453;-70
2021/11/13 05:47:29;;;;;;;138.87;55.57;;;2.90;99.90;;;;;;5016729;28;20449;-69
2021/11/13 05:49:55;;;;;;;115.37;56.57;;;2.90;99.90;;;;;;5016605;28;20449;-69
2021/11/13 05:52:24;;;;;;;114.83;55.67;;;2.90;99.90;;;;;;5016599;28;20473;-69
2021/11/13 05:54:51;;;;;;;111.93;56.60;;;2.90;99.90;;;;;;5016113;28;20507;-68
2021/11/13 05:57:18;;;;;;;136.00;56.53;;;2.90;99.90;;;;;;5016888;28;20453;-68
2021/11/13 05:59:44;;;;;;;122.20;56.80;;;2.90;99.90;;;;;;5018682;28;20454;-68
2021/11/13 06:02:11;;;;;;;120.10;55.53;;;2.90;99.90;;;;;;5015653;28;20540;-69
2021/11/13 06:04:38;;;;;;;116.23;54.60;;;2.90;99.90;;;;;;5016096;28;20453;-68
2021/11/13 06:07:05;;;;;;;105.03;55.67;;;2.90;99.90;;;;;;5016444;28;20453;-69
2021/11/13 06:09:33;;;;;;;104.07;54.20;;;2.80;99.90;;;;;;5016110;28;20464;-69
2021/11/13 06:12:00;;;;;;;108.30;53.87;;;2.90;99.90;;;;;;5015696;28;20543;-69
2021/11/13 06:14:26;;;;;;;95.50;51.30;;;2.80;99.90;;;;;;5015301;28;20479;-69
2021/11/13 06:16:53;;;;;;;97.63;52.60;;;2.90;99.90;;;;;;5015356;28;20458;-69
2021/11/13 06:19:20;;;;;;;89.97;51.57;;;2.90;99.90;;;;;;5014333;28;20812;-70
2021/11/13 06:21:47;;;;;;;87.90;51.20;;;2.90;99.90;;;;;;5013923;28;20488;-70
2021/11/13 06:24:13;;;;;;;89.57;51.50;;;3.00;99.90;;;;;;5014277;28;20461;-69
2021/11/13 06:26:42;;;;;;;83.70;49.13;;;2.90;99.90;;;;;;5014314;28;20492;-69
2021/11/13 06:29:08;;;;;;;82.73;48.47;;;3.00;99.90;;;;;;5013703;28;20515;-69
2021/11/13 06:31:35;;;;;;;77.77;46.63;;;3.00;99.90;;;;;;5014072;28;20470;-70
2021/11/13 06:34:02;;;;;;;74.00;48.37;;;3.00;99.90;;;;;;5014215;28;20462;-70
2021/11/13 06:36:29;;;;;;;75.43;47.93;;;3.10;99.90;;;;;;5014503;28;20460;-70
2021/11/13 06:38:55;;;;;;;72.70;47.20;;;3.00;99.90;;;;;;5013368;28;20453;-69
2021/11/13 06:41:26;;;;;;;72.03;47.07;;;3.10;99.90;;;;;;5016127;28;20477;-69
2021/11/13 06:43:54;;;;;;;69.47;46.13;;;3.00;99.90;;;;;;5018054;28;20442;-70
2021/11/13 06:46:21;;;;;;;65.40;44.87;;;3.10;99.90;;;;;;5018218;28;20460;-69
2021/11/13 06:48:48;;;;;;;71.53;46.90;;;3.10;99.90;;;;;;5017378;28;20458;-70
2021/11/13 06:51:15;;;;;;;67.93;43.70;;;3.10;99.90;;;;;;5017478;28;20484;-69
2021/11/13 06:53:42;;;;;;;63.80;44.77;;;3.00;99.90;;;;;;5017419;28;20453;-70
2021/11/13 06:56:09;;;;;;;63.10;44.20;;;3.00;99.90;;;;;;5017164;28;20460;-70
2021/11/13 06:58:36;;;;;;;68.70;44.03;;;3.00;99.90;;;;;;5016864;28;20453;-70
2021/11/13 07:01:05;;;;;;;63.50;44.53;;;3.10;99.90;;;;;;5017175;28;20492;-69
2021/11/13 07:03:32;;;;;;;63.73;42.30;;;3.10;99.90;;;;;;5017913;28;20461;-68
2021/11/13 07:05:58;;;;;;;64.03;42.47;;;3.20;99.90;;;;;;5017661;28;20922;-69
2021/11/13 07:08:25;;;;;;;60.93;42.93;;;3.20;99.90;;;;;;5018105;28;20453;-69
2021/11/13 07:10:53;;;;;;;56.10;39.53;;;3.10;99.90;;;;;;5017548;28;21015;-68
2021/11/13 07:13:20;;;;;;;60.40;41.57;;;3.20;99.90;;;;;;5019059;28;20457;-70
2021/11/13 07:15:47;;;;;;;57.50;39.60;;;3.30;99.90;;;;;;5018605;28;20493;-70
2021/11/13 07:18:15;;;;;;;50.20;37.27;;;3.40;99.90;;;;;;5018408;28;20468;-68
2021/11/13 07:20:42;;;;;;;44.40;35.90;;;3.50;99.90;;;;;;5018698;28;20477;-68
2021/11/13 07:23:09;;;;;;;46.43;35.77;;;3.60;99.90;;;;;;5018057;28;20832;-68
2021/11/13 07:25:36;;;;;;;46.53;36.13;;;3.70;99.90;;;;;;5018189;28;20819;-69
2021/11/13 07:28:04;;;;;;;41.97;32.53;;;3.80;99.90;;;;;;5018020;28;20449;-69
2021/11/13 07:30:39;;;;;;;41.20;31.03;;;3.90;99.90;;;;;;5016621;28;20457;-69
2021/11/13 07:33:06;;;;;;;37.47;31.00;;;4.00;99.90;;;;;;5016396;28;20904;-69
2021/11/13 07:35:35;;;;;;;35.53;28.93;;;4.00;99.90;;;;;;5016347;28;20941;-69
2021/11/13 07:38:02;;;;;;;29.57;24.87;;;4.10;99.90;;;;;;5018237;28;20464;-68
2021/11/13 07:40:29;;;;;;;29.63;24.97;;;4.10;99.90;;;;;;5018757;28;20450;-69
2021/11/13 07:42:56;;;;;;;25.73;23.00;;;4.10;99.90;;;;;;5018075;28;20473;-67
2021/11/13 07:45:23;;;;;;;28.77;25.87;;;4.20;99.90;;;;;;5018360;28;20456;-69
2021/11/13 07:47:50;;;;;;;25.60;22.80;;;4.30;99.90;;;;;;5017229;28;20461;-71
2021/11/13 07:50:18;;;;;;;25.20;21.23;;;4.30;99.90;;;;;;5017319;28;20464;-71
2021/11/13 07:52:47;;;;;;;24.13;21.53;;;4.40;99.90;;;;;;5016083;28;20458;-71
2021/11/13 07:55:16;;;;;;;24.10;21.43;;;4.50;99.90;;;;;;5016111;28;20459;-71
2021/11/13 07:57:43;;;;;;;23.30;21.07;;;4.60;99.90;;;;;;5017143;28;20464;-70
2021/11/13 08:00:12;;;;;;;20.53;18.53;;;4.50;99.90;;;;;;5017201;28;20457;-70
2021/11/13 08:02:39;;;;;;;22.03;19.70;;;4.60;99.90;;;;;;5015946;28;20485;-70
2021/11/13 08:05:07;;;;;;;21.93;19.53;;;4.70;99.90;;;;;;5019083;28;20952;-72
2021/11/13 08:07:33;;;;;;;21.03;18.83;;;4.70;99.90;;;;;;5019891;28;20457;-71
2021/11/13 08:10:01;;;;;;;19.50;17.60;;;4.80;99.90;;;;;;5018330;28;20449;-71
2021/11/13 08:12:28;;;;;;;21.30;19.13;;;4.70;99.90;;;;;;5018454;28;20477;-70
2021/11/13 08:14:55;;;;;;;20.50;18.40;;;4.80;99.90;;;;;;5016374;28;20810;-70
2021/11/13 08:17:22;;;;;;;21.50;19.27;;;5.00;99.90;;;;;;5016622;28;20457;-70
2021/11/13 08:19:49;;;;;;;18.83;17.00;;;5.10;99.90;;;;;;5016399;28;20464;-70
2021/11/13 08:22:15;;;;;;;18.57;16.70;;;5.30;99.90;;;;;;5015799;28;20488;-70
2021/11/13 08:24:42;;;;;;;19.07;17.27;;;5.30;99.90;;;;;;5021647;28;20467;-70
2021/11/13 08:27:11;;;;;;;19.40;17.40;;;5.40;99.90;;;;;;5030483;28;20449;-70
2021/11/13 08:29:38;;;;;;;19.70;17.53;;;5.50;99.90;;;;;;5022606;28;20485;-70
2021/11/13 08:32:06;;;;;;;17.63;15.93;;;5.60;99.90;;;;;;5016034;28;20483;-69
2021/11/13 08:34:33;;;;;;;19.07;17.20;;;5.60;99.90;;;;;;5016700;28;20457;-70
2021/11/13 08:37:00;;;;;;;20.93;17.10;;;5.70;99.90;;;;;;5017130;28;20457;-70
2021/11/13 08:39:32;;;;;;;20.30;17.50;;;5.80;99.90;;;;;;5016399;28;20458;-70
2021/11/13 08:41:59;;;;;;;21.57;19.43;;;5.80;99.90;;;;;;5016076;28;20548;-68
2021/11/13 08:44:27;;;;;;;19.93;18.03;;;5.90;99.90;;;;;;5015994;28;20449;-71
2021/11/13 08:46:55;;;;;;;20.13;18.10;;;5.80;99.90;;;;;;5015670;28;20457;-70
2021/11/13 08:49:23;;;;;;;20.40;17.87;;;5.80;99.90;;;;;;5015703;28;20457;-70
2021/11/13 08:51:50;;;;;;;19.47;17.67;;;5.80;99.90;;;;;;5016072;28;20480;-70
2021/11/13 08:54:16;;;;;;;19.13;17.17;;;5.80;99.90;;;;;;5015230;28;20998;-70
2021/11/13 08:56:43;;;;;;;21.37;17.23;;;5.80;99.90;;;;;;5015128;28;20464;-69
2021/11/13 08:59:10;;;;;;;18.97;17.07;;;5.80;99.90;;;;;;5015937;28;20464;-69
2021/11/13 09:01:39;;;;;;;18.87;16.97;;;5.80;99.90;;;;;;5014845;28;20493;-70
2021/11/13 09:04:06;;;;;;;18.17;16.47;;;5.80;99.90;;;;;;5014732;28;20862;-71
2021/11/13 09:06:34;;;;;;;20.33;18.43;;;5.80;99.90;;;;;;5015319;28;20457;-71
2021/11/13 09:09:02;;;;;;;19.07;17.20;;;5.80;99.90;;;;;;5015192;28;20457;-69
2021/11/13 09:11:32;;;;;;;19.87;17.57;;;5.90;99.90;;;;;;5014837;28;20484;-69
2021/11/13 09:14:00;;;;;;;20.03;17.93;;;5.90;99.90;;;;;;5014468;28;20818;-69
2021/11/13 09:16:27;;;;;;;19.03;17.23;;;6.00;99.90;;;;;;5014953;28;20461;-70
2021/11/13 09:18:55;;;;;;;18.60;16.70;;;6.10;99.90;;;;;;5014766;28;20461;-69
2021/11/13 09:21:22;;;;;;;21.20;19.00;;;6.10;99.90;;;;;;5014431;28;20477;-70
2021/11/13 09:23:50;;;;;;;19.10;17.20;;;6.30;99.90;;;;;;5014767;28;20462;-70
2021/11/13 09:26:16;;;;;;;19.00;17.20;;;6.30;99.90;;;;;;5015353;28;20461;-70
2021/11/13 09:28:44;;;;;;;19.67;17.57;;;6.40;99.90;;;;;;5016790;28;20453;-70
2021/11/13 09:31:11;;;;;;;18.30;16.60;;;6.60;99.90;;;;;;5015011;28;20488;-70
2021/11/13 09:33:38;;;;;;;17.80;16.20;;;6.80;99.90;;;;;;5014767;28;20448;-70
2021/11/13 09:36:06;;;;;;;16.77;15.10;;;7.10;99.90;;;;;;5014428;28;20453;-69
2021/11/13 09:38:35;;;;;;;16.77;15.07;;;7.70;99.90;;;;;;5014478;28;20461;-70
2021/11/13 09:41:06;;;;;;;13.83;12.27;;;8.30;99.90;;;;;;5014110;28;20477;-70
2021/11/13 09:43:34;;;;;;;17.13;14.10;;;8.70;99.90;;;;;;5015047;28;20821;-70
2021/11/13 09:46:04;;;;;;;15.70;14.30;;;9.10;99.90;;;;;;5014580;28;20480;-70
2021/11/13 09:48:32;;;;;;;15.50;14.20;;;9.40;99.90;;;;;;5014468;28;20464;-71
2021/11/13 09:50:59;;;;;;;15.87;14.27;;;9.60;99.90;;;;;;5014721;28;20477;-71
2021/11/13 09:53:28;;;;;;;17.20;15.50;;;9.60;99.90;;;;;;5014471;28;20808;-71
2021/11/13 09:55:56;;;;;;;17.90;16.37;;;9.40;99.90;;;;;;5014754;28;20457;-70
2021/11/13 09:58:24;;;;;;;16.30;14.90;;;9.60;99.90;;;;;;5014573;28;20810;-70
2021/11/13 10:00:51;;;;;;;16.03;14.60;;;9.70;99.90;;;;;;5014516;28;20480;-70
2021/11/13 10:03:19;;;;;;;17.43;15.87;;;9.50;99.90;;;;;;5014582;28;20468;-70
2021/11/13 10:05:47;;;;;;;17.40;15.70;;;9.50;99.90;;;;;;5014582;28;20483;-71
2021/11/13 10:08:14;;;;;;;16.63;15.23;;;9.20;99.90;;;;;;5014386;28;20468;-70
2021/11/13 10:10:43;;;;;;;17.60;15.90;;;9.10;99.90;;;;;;5014345;28;20976;-71
2021/11/13 10:13:26;;;;;;;16.40;14.90;;;9.00;99.90;;;;;;5014421;28;20449;-71
2021/11/13 10:15:55;;;;;;;18.43;16.63;;;9.00;99.90;;;;;;5018318;28;20445;-70
2021/11/13 10:18:24;;;;;;;17.43;15.77;;;8.90;99.90;;;;;;5018381;28;20468;-71
2021/11/13 10:21:01;;;;;;;16.73;15.33;;;8.90;99.90;;;;;;5017864;28;21007;-71
2021/11/13 10:23:36;;;;;;;17.60;15.80;;;8.80;99.90;;;;;;5017879;28;20465;-70
2021/11/13 10:26:07;;;;;;;15.93;14.60;;;8.80;99.90;;;;;;5018139;28;20441;-70
2021/11/13 10:28:44;;;;;;;16.80;15.13;;;8.70;99.90;;;;;;5018019;28;20449;-71
2021/11/13 10:31:12;;;;;;;16.83;15.23;;;8.70;99.90;;;;;;5018574;28;20566;-71
2021/11/13 10:33:40;;;;;;;16.77;15.27;;;8.70;99.90;;;;;;5018784;28;20449;-70
2021/11/13 10:36:07;;;;;;;16.20;14.60;;;8.80;99.90;;;;;;5021276;28;20453;-71
2021/11/13 10:38:34;;;;;;;16.43;14.87;;;8.80;99.90;;;;;;5022590;28;20452;-71
2021/11/13 10:41:05;;;;;;;19.87;15.97;;;8.80;99.90;;;;;;5018388;28;20484;-70
2021/11/13 10:43:34;;;;;;;16.37;14.87;;;8.80;99.90;;;;;;5017769;28;20480;-70
2021/11/13 10:46:03;;;;;;;17.00;15.40;;;8.90;99.90;;;;;;5017663;28;20466;-71
2021/11/13 10:48:30;;;;;;;15.30;13.90;;;8.90;99.90;;;;;;5017841;28;20453;-70
2021/11/13 10:51:08;;;;;;;17.30;15.57;;;8.90;99.90;;;;;;5017764;28;20872;-71
2021/11/13 10:53:36;;;;;;;17.80;16.10;;;9.00;99.90;;;;;;5017692;28;20440;-72
2021/11/13 10:56:16;;;;;;;17.40;15.57;;;9.00;99.90;;;;;;5018041;28;20492;-70
2021/11/13 10:58:52;;;;;;;17.87;16.20;;;9.00;99.90;;;;;;5018592;28;20804;-71
2021/11/13 11:01:31;;;;;;;18.90;17.13;;;9.00;99.90;;;;;;5019914;28;20508;-71
2021/11/13 11:04:02;;;;;;;18.70;17.00;;;9.00;99.90;;;;;;5026889;28;20465;-70
2021/11/13 11:06:37;;;;;;;19.33;17.50;;;9.00;99.90;;;;;;5030655;28;20448;-71
2021/11/13 11:09:18;;;;;;;17.80;16.17;;;9.00;99.90;;;;;;5021573;28;20441;-71
2021/11/13 11:11:47;;;;;;;17.30;15.63;;;9.00;99.90;;;;;;5023023;28;20481;-72
2021/11/13 11:14:17;;;;;;;18.17;16.40;;;9.00;99.90;;;;;;5019833;28;20445;-70
2021/11/13 11:16:46;;;;;;;20.50;18.50;;;9.00;99.90;;;;;;5024709;28;20480;-71
2021/11/13 11:19:14;;;;;;;18.43;16.77;;;8.90;99.90;;;;;;5027254;28;20458;-70
2021/11/13 11:21:46;;;;;;;18.40;16.57;;;8.90;99.90;;;;;;5028450;28;20480;-70
2021/11/13 11:24:15;;;;;;;17.27;15.53;;;8.80;99.90;;;;;;5026768;28;20465;-71
2021/11/13 11:26:43;;;;;;;18.37;16.47;;;8.90;99.90;;;;;;5028824;28;20461;-70
2021/11/13 11:29:12;;;;;;;19.40;15.10;;;8.90;99.90;;;;;;5027374;28;20480;-71
2021/11/13 11:31:45;;;;;;;16.57;14.97;;;8.90;99.90;;;;;;5026165;28;20474;-71
2021/11/13 11:34:20;;;;;;;18.10;16.30;;;9.00;99.90;;;;;;5023020;28;20941;-71
2021/11/13 11:36:47;;;;;;;18.27;16.43;;;9.10;99.90;;;;;;5024224;28;20448;-70
2021/11/13 11:39:15;;;;;;;17.17;15.57;;;9.10;99.90;;;;;;5021867;28;20952;-70
2021/11/13 11:41:42;;;;;;;16.57;15.00;;;9.30;99.90;;;;;;5017652;28;20492;-71
2021/11/13 11:44:11;;;;;;;16.30;14.90;;;9.20;99.90;;;;;;5016887;28;20476;-70
2021/11/13 11:46:37;;;;;;;17.00;15.40;;;9.30;99.90;;;;;;5017509;28;20457;-70
2021/11/13 11:49:04;;;;;;;16.60;15.10;;;9.30;99.90;;;;;;5017039;28;20453;-70
2021/11/13 11:51:32;;;;;;;17.50;16.00;;;9.30;99.90;;;;;;5017417;28;20477;-70
2021/11/13 11:54:00;;;;;;;17.93;16.13;;;9.40;99.90;;;;;;5017381;28;20457;-71
2021/11/13 11:56:27;;;;;;;18.13;16.37;;;9.50;99.90;;;;;;5017783;28;20460;-70
2021/11/13 11:58:55;;;;;;;16.80;15.20;;;9.50;99.90;;;;;;5018966;28;20461;-71
2021/11/13 12:01:28;;;;;;;16.20;14.70;;;9.50;99.90;;;;;;5019303;28;20493;-70
2021/11/13 12:04:13;;;;;;;17.40;15.80;;;9.50;99.90;;;;;;5019080;28;20465;-70
2021/11/13 12:06:42;;;;;;;17.73;16.03;;;9.40;99.90;;;;;;5018957;28;20533;-69
2021/11/13 12:09:08;;;;;;;18.87;16.90;;;9.40;99.90;;;;;;5018367;28;20460;-71
2021/11/13 12:11:36;;;;;;;17.70;15.90;;;9.40;99.90;;;;;;5017758;28;20478;-71
2021/11/13 12:14:23;;;;;;;20.37;17.30;;;9.30;99.90;;;;;;5017231;28;20469;-70
2021/11/13 12:16:51;;;;;;;19.60;17.70;;;9.30;99.90;;;;;;5017421;28;20453;-71
2021/11/13 12:19:19;;;;;;;18.10;16.37;;;9.30;99.90;;;;;;5017877;28;20464;-70
2021/11/13 12:21:56;;;;;;;17.27;15.70;;;9.30;99.90;;;;;;5017899;28;20473;-72
2021/11/13 12:24:23;;;;;;;18.40;16.57;;;9.40;99.90;;;;;;5018346;28;20468;-71
2021/11/13 12:27:01;;;;;;;33.00;23.07;;;9.40;99.90;;;;;;5017046;28;20469;-72
2021/11/13 12:29:29;;;;;;;45.20;31.27;;;9.40;99.90;;;;;;5017068;28;20464;-71
2021/11/13 12:31:58;;;;;;;31.07;24.17;;;9.50;99.90;;;;;;5016717;28;20887;-71
2021/11/13 12:34:34;;;;;;;22.30;19.53;;;9.60;99.90;;;;;;5016984;28;20503;-70
2021/11/13 12:37:08;;;;;;;19.57;17.67;;;9.60;99.90;;;;;;5017185;28;20445;-71
2021/11/13 12:39:39;;;;;;;18.00;16.30;;;9.50;99.90;;;;;;5017065;28;20438;-70
2021/11/13 12:42:07;;;;;;;18.00;16.20;;;9.60;99.90;;;;;;5017248;28;20480;-70
2021/11/13 12:44:40;;;;;;;17.03;15.33;;;9.70;99.90;;;;;;5018191;28;20480;-71
2021/11/13 12:47:17;;;;;;;19.83;17.80;;;9.60;99.90;;;;;;5017064;28;20445;-69
2021/11/13 12:49:53;;;;;;;23.53;19.57;;;9.70;99.90;;;;;;5017107;28;20466;-70
2021/11/13 12:52:33;;;;;;;25.17;22.20;;;9.70;99.90;;;;;;5016957;28;20473;-69
2021/11/13 12:55:13;;;;;;;23.77;21.43;;;9.70;99.90;;;;;;5016844;28;20798;-70
2021/11/13 12:57:40;;;;;;;21.43;19.33;;;9.70;99.90;;;;;;5017178;28;20448;-70
2021/11/13 13:00:13;;;;;;;19.50;17.60;;;9.70;99.90;;;;;;5017716;28;20511;-70
2021/11/13 13:02:41;;;;;;;18.60;16.90;;;9.70;99.90;;;;;;5016705;28;20493;-70
2021/11/13 13:05:10;;;;;;;19.50;17.80;;;9.70;99.90;;;;;;5016489;28;20851;-69
2021/11/13 13:07:38;;;;;;;19.10;17.40;;;9.80;99.90;;;;;;5016418;28;20458;-69
2021/11/13 13:10:07;;;;;;;19.10;17.23;;;9.80;99.90;;;;;;5016212;28;20798;-71
2021/11/13 13:12:38;;;;;;;18.00;16.40;;;9.80;99.90;;;;;;5016406;28;20476;-72
2021/11/13 13:15:07;;;;;;;18.10;15.77;;;9.80;99.90;;;;;;5017091;28;20445;-71
2021/11/13 13:17:36;;;;;;;18.00;16.40;;;9.80;99.90;;;;;;5016890;28;20452;-70
2021/11/13 13:20:05;;;;;;;18.30;16.60;;;9.80;99.90;;;;;;5016349;28;20461;-69
2021/11/13 13:22:34;;;;;;;17.03;15.50;;;9.70;99.90;;;;;;5020311;28;20477;-70
2021/11/13 13:25:03;;;;;;;17.60;16.00;;;9.70;99.90;;;;;;5020373;28;20484;-70
2021/11/13 13:27:30;;;;;;;19.17;17.37;;;9.70;99.90;;;;;;5018548;28;20446;-70
2021/11/13 13:29:59;;;;;;;19.00;17.00;;;9.70;99.90;;;;;;5016628;28;20458;-70
2021/11/13 13:32:27;;;;;;;17.83;16.23;;;9.60;99.90;;;;;;5015481;28;20480;-70
2021/11/13 13:34:57;;;;;;;17.63;15.90;;;9.70;99.90;;;;;;5015990;28;20446;-70
2021/11/13 13:37:29;;;;;;;19.20;17.40;;;9.70;99.90;;;;;;5016114;28;20442;-71
2021/11/13 13:39:58;;;;;;;19.00;17.10;;;9.70;99.90;;;;;;5016352;28;20799;-69
2021/11/13 13:42:34;;;;;;;19.83;17.93;;;9.70;99.90;;;;;;5016388;28;20473;-69
2021/11/13 13:45:01;;;;;;;19.97;18.17;;;9.70;99.90;;;;;;5015852;28;20477;-70
2021/11/13 13:47:29;;;;;;;20.33;18.27;;;9.80;99.90;;;;;;5016186;28;20462;-70
2021/11/13 13:49:57;;;;;;;19.70;17.27;;;9.70;99.90;;;;;;5016452;28;20469;-70
2021/11/13 13:52:34;;;;;;;18.17;16.40;;;9.70;99.90;;;;;;5015344;28;20500;-69
2021/11/13 13:55:00;;;;;;;18.30;16.60;;;9.70;99.90;;;;;;5015227;28;20914;-69
2021/11/13 13:57:27;;;;;;;20.80;18.50;;;9.70;99.90;;;;;;5015273;28;20453;-69
2021/11/13 13:59:57;;;;;;;19.93;17.90;;;9.70;99.90;;;;;;5015171;28;20474;-69
2021/11/13 14:02:26;;;;;;;18.83;17.13;;;9.60;99.90;;;;;;5015121;28;20484;-69
2021/11/13 14:04:54;;;;;;;19.73;17.93;;;9.50;99.90;;;;;;5015815;28;20481;-70
2021/11/13 14:07:24;;;;;;;20.50;18.33;;;9.50;99.90;;;;;;5015322;28;20532;-70
2021/11/13 14:10:06;;;;;;;20.30;18.43;;;9.40;99.90;;;;;;5015264;28;20438;-69
2021/11/13 14:12:41;;;;;;;19.33;17.40;;;9.40;99.90;;;;;;5018381;28;20476;-69
2021/11/13 14:15:13;;;;;;;20.47;18.27;;;9.40;99.90;;;;;;5020685;28;20434;-70
2021/11/13 14:17:40;;;;;;;19.90;18.10;;;9.30;99.90;;;;;;5025051;28;20468;-70
2021/11/13 14:20:17;;;;;;;20.33;18.43;;;9.40;99.90;;;;;;5023571;28;20457;-70
2021/11/13 14:22:58;;;;;;;18.63;16.93;;;9.40;99.90;;;;;;5017392;28;20503;-70
2021/11/13 14:25:27;;;;;;;16.83;15.23;;;9.40;99.90;;;;;;5015181;28;20468;-70
2021/11/13 14:27:55;;;;;;;15.93;14.37;;;9.40;99.90;;;;;;5014972;28;20451;-70
2021/11/13 14:30:22;;;;;;;17.43;15.80;;;9.40;99.90;;;;;;5015514;28;20460;-69
2021/11/13 14:32:57;;;;;;;18.57;16.73;;;9.40;99.90;;;;;;5021834;28;20944;-70
2021/11/13 14:35:25;;;;;;;21.83;16.33;;;9.50;99.90;;;;;;5025370;28;20468;-72
2021/11/13 14:37:54;;;;;;;17.23;15.17;;;9.40;99.90;;;;;;5015643;28;20437;-70
2021/11/13 14:40:21;;;;;;;17.57;15.83;;;9.40;99.90;;;;;;5015219;28;20573;-68
2021/11/13 14:42:50;;;;;;;19.07;17.27;;;9.40;99.90;;;;;;5014699;28;20459;-69
2021/11/13 14:45:29;;;;;;;17.37;15.70;;;9.40;99.90;;;;;;5014876;28;21018;-69
2021/11/13 14:47:55;;;;;;;20.53;16.40;;;9.40;99.90;;;;;;5014668;28;20789;-70
2021/11/13 14:50:23;;;;;;;18.07;16.17;;;9.40;99.90;;;;;;5015317;28;20453;-70
2021/11/13 14:52:52;;;;;;;17.80;16.10;;;9.40;99.90;;;;;;5014866;28;20453;-70
2021/11/13 14:55:22;;;;;;;18.20;16.40;;;9.40;99.90;;;;;;5014566;28;20798;-69
2021/11/13 14:57:53;;;;;;;20.50;18.40;;;9.40;99.90;;;;;;5014416;28;20453;-69
2021/11/13 15:00:25;;;;;;;18.37;16.50;;;9.40;99.90;;;;;;5014210;28;20940;-70
2021/11/13 15:03:04;;;;;;;17.90;16.17;;;9.50;99.90;;;;;;5017706;28;20442;-70
2021/11/13 15:05:31;;;;;;;20.30;18.20;;;9.50;99.90;;;;;;5017451;28;20468;-69
2021/11/13 15:07:58;;;;;;;20.50;18.40;;;9.50;99.90;;;;;;5017225;28;20944;-69
2021/11/13 15:10:25;;;;;;;18.83;17.13;;;9.50;99.90;;;;;;5017228;28;20967;-70
2021/11/13 15:12:53;;;;;;;18.83;17.00;;;9.50;99.90;;;;;;5017924;28;20541;-69
2021/11/13 15:15:19;;;;;;;19.73;17.67;;;9.50;99.90;;;;;;5017887;28;20449;-70
2021/11/13 15:17:47;;;;;;;20.17;18.07;;;9.50;99.90;;;;;;5017681;28;20782;-70
2021/11/13 15:20:20;;;;;;;19.40;17.50;;;9.50;99.90;;;;;;5017486;28;20929;-70
2021/11/13 15:22:48;;;;;;;19.80;18.00;;;9.60;99.90;;;;;;5017572;28;20437;-68
2021/11/13 15:25:17;;;;;;;19.23;17.30;;;9.60;99.90;;;;;;5017280;28;20465;-70
2021/11/13 15:27:56;;;;;;;20.27;18.30;;;9.60;99.90;;;;;;5017276;28;20453;-71
2021/11/13 15:30:24;;;;;;;18.67;16.90;;;9.70;99.90;;;;;;5016762;28;20858;-70
2021/11/13 15:32:52;;;;;;;19.80;17.70;;;9.70;99.90;;;;;;5017609;28;20849;-69
2021/11/13 15:35:21;;;;;;;20.13;18.20;;;9.70;99.90;;;;;;5017642;28;20449;-70
2021/11/13 15:37:50;;;;;;;19.30;17.40;;;9.70;99.90;;;;;;5017070;28;20936;-70
2021/11/13 15:40:21;;;;;;;20.67;18.63;;;9.70;99.90;;;;;;5016943;28;20914;-70
2021/11/13 15:42:50;;;;;;;20.30;18.43;;;9.60;99.90;;;;;;5017084;28;20446;-69
2021/11/13 15:45:22;;;;;;;20.07;18.07;;;9.60;99.90;;;;;;5016906;28;20488;-69
2021/11/13 15:48:06;;;;;;;18.97;17.17;;;9.60;99.90;;;;;;5016825;28;20777;-69
2021/11/13 15:50:34;;;;;;;20.70;18.50;;;9.60;99.90;;;;;;5016768;28;20460;-69
2021/11/13 15:53:05;;;;;;;21.13;19.00;;;9.50;99.90;;;;;;5016888;28;20815;-69
2021/11/13 15:55:32;;;;;;;21.30;19.30;;;9.50;99.90;;;;;;5016690;28;20442;-70
2021/11/13 15:57:59;;;;;;;23.13;20.63;;;9.50;99.90;;;;;;5016223;28;20464;-69
2021/11/13 16:00:28;;;;;;;22.13;20.10;;;9.50;99.90;;;;;;5016705;28;20452;-69
2021/11/13 16:02:56;;;;;;;24.30;21.80;;;9.50;99.90;;;;;;5017291;28;20446;-70
2021/11/13 16:05:25;;;;;;;26.63;24.03;;;9.40;99.90;;;;;;5017047;28;20477;-70
2021/11/13 16:07:51;;;;;;;27.97;24.97;;;9.40;99.90;;;;;;5016274;28;20944;-69
2021/11/13 16:10:18;;;;;;;27.77;24.67;;;9.30;99.90;;;;;;5016269;28;20818;-69
2021/11/13 16:12:47;;;;;;;28.53;25.77;;;9.30;99.90;;;;;;5016028;28;20470;-69
2021/11/13 16:15:15;;;;;;;29.43;26.43;;;9.30;99.90;;;;;;5016139;28;20464;-69
2021/11/13 16:17:44;;;;;;;27.57;24.77;;;9.30;99.90;;;;;;5015569;28;20967;-69
2021/11/13 16:20:13;;;;;;;23.57;21.17;;;9.30;99.90;;;;;;5016028;28;20465;-69
2021/11/13 16:22:39;;;;;;;23.47;21.23;;;9.30;99.90;;;;;;5016184;28;20477;-68
2021/11/13 16:25:08;;;;;;;25.90;23.20;;;9.30;99.90;;;;;;5016083;28;20488;-69
2021/11/13 16:27:35;;;;;;;25.30;22.77;;;9.30;99.90;;;;;;5016100;28;20515;-68
2021/11/13 16:30:02;;;;;;;25.13;22.73;;;9.30;99.90;;;;;;5016254;28;20972;-70
2021/11/13 16:32:31;;;;;;;24.37;21.73;;;9.30;99.90;;;;;;5015783;28;20473;-69
2021/11/13 16:34:59;;;;;;;25.30;22.60;;;9.30;99.90;;;;;;5016276;28;20453;-69
2021/11/13 16:37:28;;;;;;;27.83;23.87;;;9.30;99.90;;;;;;5017132;28;20454;-68
2021/11/13 16:39:55;;;;;;;26.50;23.87;;;9.40;99.90;;;;;;5018015;28;20940;-68
2021/11/13 16:42:21;;;;;;;26.90;24.10;;;9.40;99.90;;;;;;5015271;28;20472;-70
2021/11/13 16:44:48;;;;;;;26.00;23.40;;;9.40;99.90;;;;;;5017649;28;20473;-69
2021/11/13 16:47:15;;;;;;;26.77;23.93;;;9.30;99.90;;;;;;5022451;28;20540;-69
2021/11/13 16:49:42;;;;;;;25.93;23.43;;;9.30;99.90;;;;;;5016988;28;20465;-69
2021/11/13 16:52:10;;;;;;;29.77;26.77;;;9.40;99.90;;;;;;5015457;28;20477;-69
2021/11/13 16:54:36;;;;;;;30.90;24.70;;;9.40;99.90;;;;;;5016407;28;20456;-70
2021/11/13 16:57:03;;;;;;;26.93;24.33;;;9.40;99.90;;;;;;5015365;28;20480;-69
2021/11/13 16:59:30;;;;;;;26.00;23.30;;;9.40;99.90;;;;;;5015015;28;20941;-69
2021/11/13 17:01:57;;;;;;;26.43;23.67;;;9.40;99.90;;;;;;5014758;28;20496;-69
2021/11/13 17:04:24;;;;;;;28.93;26.03;;;9.30;99.90;;;;;;5015105;28;20477;-70
2021/11/13 17:06:52;;;;;;;32.37;26.90;;;9.40;99.90;;;;;;5015089;28;21015;-71
2021/11/13 17:09:20;;;;;;;29.03;25.90;;;9.30;99.90;;;;;;5015151;28;20464;-69
2021/11/13 17:11:47;;;;;;;31.90;28.60;;;9.30;99.90;;;;;;5015249;28;20837;-70
2021/11/13 17:14:15;;;;;;;30.80;26.40;;;9.30;99.90;;;;;;5015205;28;20485;-69
2021/11/13 17:16:43;;;;;;;29.57;25.67;;;9.30;99.90;;;;;;5014890;28;20996;-69
2021/11/13 17:19:11;;;;;;;27.90;25.10;;;9.30;99.90;;;;;;5015640;28;20453;-68
2021/11/13 17:21:40;;;;;;;26.40;23.80;;;9.40;99.90;;;;;;5014476;28;20984;-68
2021/11/13 17:24:07;;;;;;;27.67;24.80;;;9.40;99.90;;;;;;5014325;28;20453;-68
2021/11/13 17:26:36;;;;;;;28.63;25.10;;;9.40;99.90;;;;;;5015043;28;20453;-68
2021/11/13 17:29:03;;;;;;;27.97;25.00;;;9.40;99.90;;;;;;5016552;28;20464;-68
2021/11/13 17:31:30;;;;;;;26.67;23.90;;;9.40;99.90;;;;;;5018498;28;20553;-68
2021/11/13 17:33:57;;;;;;;27.07;24.37;;;9.40;99.90;;;;;;5021513;28;20452;-70
2021/11/13 17:36:23;;;;;;;28.20;25.30;;;9.50;99.90;;;;;;5022355;28;20449;-69
2021/11/13 17:38:50;;;;;;;28.37;25.37;;;9.50;99.90;;;;;;5024150;28;20449;-69
2021/11/13 17:41:17;;;;;;;27.97;25.07;;;9.50;99.90;;;;;;5017771;28;20477;-69
2021/11/13 17:43:45;;;;;;;31.20;26.07;;;9.50;99.90;;;;;;5015013;28;20485;-68